Time;durP1;ratioP1;P1;durP2;ratioP2;P2;SDS_P1;SDS_P2;PMS_P1;PMS_P2;Temp;Humidity;BMP_temperature;BMP_pressure;BME280_temperature;BME280_humidity;BME280_pressure;Samples;Min_cycle;Max_cycle;Signal;HPM_P1;HPM_P2
2023/04/06 00:00:02;;;;;;;24.52;16.73;;;;;;;;;;2044180;29;20054;-67
2023/04/06 00:01:23;;;;;;;31.65;17.42;;;;;;;;;;2046023;29;20059;-68
2023/04/06 00:02:43;;;;;;;29.27;16.17;;;;;;;;;;2034581;29;20403;-68
2023/04/06 00:04:05;;;;;;;32.47;17.33;;;;;;;;;;2035444;29;20035;-67
2023/04/06 00:05:27;;;;;;;27.60;17.10;;;;;;;;;;2039958;29;20032;-68
2023/04/06 00:06:48;;;;;;;25.23;16.73;;;;;;;;;;2039265;29;20446;-68
2023/04/06 00:08:09;;;;;;;28.05;17.77;;;;;;;;;;2038150;28;20043;-67
2023/04/06 00:09:30;;;;;;;34.17;17.10;;;;;;;;;;2043826;28;20037;-67
2023/04/06 00:10:50;;;;;;;30.23;16.75;;;;;;;;;;2036154;29;20032;-67
2023/04/06 00:12:11;;;;;;;26.52;16.02;;;;;;;;;;2032342;29;20036;-67
2023/04/06 00:13:32;;;;;;;25.52;16.20;;;;;;;;;;2040795;29;20035;-67
2023/04/06 00:14:53;;;;;;;27.05;16.25;;;;;;;;;;2044098;29;20047;-67
2023/04/06 00:16:14;;;;;;;27.85;17.00;;;;;;;;;;2039899;29;20408;-67
2023/04/06 00:17:35;;;;;;;26.13;16.92;;;;;;;;;;2032860;29;20040;-68
2023/04/06 00:18:56;;;;;;;27.55;15.85;;;;;;;;;;2039847;29;20043;-67
2023/04/06 00:20:17;;;;;;;30.10;16.88;;;;;;;;;;2041489;29;20058;-67
2023/04/06 00:21:39;;;;;;;24.60;15.50;;;;;;;;;;2039767;29;20044;-68
2023/04/06 00:22:59;;;;;;;23.13;15.35;;;;;;;;;;2040264;29;20118;-67
2023/04/06 00:24:20;;;;;;;26.88;15.10;;;;;;;;;;2041054;29;20031;-68
2023/04/06 00:25:41;;;;;;;25.48;16.20;;;;;;;;;;2037578;29;20388;-68
2023/04/06 00:27:02;;;;;;;24.10;15.10;;;;;;;;;;2040819;29;20036;-69
2023/04/06 00:28:26;;;;;;;25.17;15.52;;;;;;;;;;2038593;29;20047;-67
2023/04/06 00:29:46;;;;;;;24.20;15.57;;;;;;;;;;2045637;29;20035;-67
2023/04/06 00:31:07;;;;;;;25.65;16.23;;;;;;;;;;2032595;29;20041;-67
2023/04/06 00:32:28;;;;;;;28.50;16.48;;;;;;;;;;2024523;29;20033;-68
2023/04/06 00:33:49;;;;;;;24.45;16.27;;;;;;;;;;2032998;29;20040;-67
2023/04/06 00:35:10;;;;;;;32.33;17.75;;;;;;;;;;2035765;29;20031;-67
2023/04/06 00:36:31;;;;;;;22.85;15.38;;;;;;;;;;2033091;29;20047;-67
2023/04/06 00:37:52;;;;;;;22.63;15.93;;;;;;;;;;2032604;29;20047;-67
2023/04/06 00:39:13;;;;;;;21.15;14.77;;;;;;;;;;2041217;29;20122;-68
2023/04/06 00:40:35;;;;;;;28.10;15.68;;;;;;;;;;2035617;29;20047;-67
2023/04/06 00:41:56;;;;;;;25.90;16.02;;;;;;;;;;2039374;29;20111;-67
2023/04/06 00:43:17;;;;;;;33.50;17.27;;;;;;;;;;2035854;29;20487;-68
2023/04/06 00:44:38;;;;;;;30.65;16.70;;;;;;;;;;2034649;29;20048;-67
2023/04/06 00:45:59;;;;;;;35.65;17.33;;;;;;;;;;2033824;29;20043;-68
2023/04/06 00:47:20;;;;;;;28.48;17.52;;;;;;;;;;2037233;29;20027;-67
2023/04/06 00:48:41;;;;;;;26.63;16.27;;;;;;;;;;2037327;29;20051;-67
2023/04/06 00:50:02;;;;;;;26.65;17.13;;;;;;;;;;2040390;29;20423;-68
2023/04/06 00:51:23;;;;;;;29.27;17.88;;;;;;;;;;2046097;29;20027;-67
2023/04/06 00:52:44;;;;;;;25.30;15.93;;;;;;;;;;2042959;29;20462;-67
2023/04/06 00:54:05;;;;;;;31.80;17.45;;;;;;;;;;2035425;29;20084;-67
2023/04/06 00:55:26;;;;;;;27.85;17.33;;;;;;;;;;2034834;29;20028;-67
2023/04/06 00:56:47;;;;;;;25.65;16.27;;;;;;;;;;2044540;29;20363;-67
2023/04/06 00:58:08;;;;;;;26.27;16.55;;;;;;;;;;2044322;28;20043;-67
2023/04/06 00:59:29;;;;;;;31.85;18.00;;;;;;;;;;2033852;29;21157;-67
2023/04/06 01:00:50;;;;;;;30.02;16.80;;;;;;;;;;2039715;29;20041;-68
2023/04/06 01:02:11;;;;;;;25.75;16.35;;;;;;;;;;2039761;29;20570;-67
2023/04/06 01:03:32;;;;;;;29.50;16.45;;;;;;;;;;2034434;29;20388;-67
2023/04/06 01:04:54;;;;;;;30.83;16.80;;;;;;;;;;2040747;29;20058;-67
2023/04/06 01:06:15;;;;;;;26.33;16.13;;;;;;;;;;2034344;29;20055;-68
2023/04/06 01:07:35;;;;;;;26.67;16.85;;;;;;;;;;2040330;29;20527;-67
2023/04/06 01:08:56;;;;;;;28.67;16.65;;;;;;;;;;2038556;29;20068;-67
2023/04/06 01:10:24;;;;;;;27.65;16.60;;;;;;;;;;2035619;29;20404;-67
2023/04/06 01:11:45;;;;;;;24.90;15.55;;;;;;;;;;2040582;29;20043;-67
2023/04/06 01:13:07;;;;;;;25.10;14.93;;;;;;;;;;2042974;29;20046;-68
2023/04/06 01:14:27;;;;;;;34.65;16.98;;;;;;;;;;2041131;29;20430;-67
2023/04/06 01:15:49;;;;;;;27.98;16.45;;;;;;;;;;2044409;29;20078;-67
2023/04/06 01:17:10;;;;;;;33.97;16.73;;;;;;;;;;2043102;29;20090;-67
2023/04/06 01:18:30;;;;;;;28.55;15.85;;;;;;;;;;2038174;29;20509;-68
2023/04/06 01:19:53;;;;;;;23.35;15.75;;;;;;;;;;2043612;29;20122;-67
2023/04/06 01:21:15;;;;;;;28.42;15.85;;;;;;;;;;2038080;29;20024;-67
2023/04/06 01:22:36;;;;;;;25.08;15.95;;;;;;;;;;2031980;29;20564;-67
2023/04/06 01:23:57;;;;;;;25.23;14.70;;;;;;;;;;2034027;29;20090;-67
2023/04/06 01:25:18;;;;;;;27.25;15.57;;;;;;;;;;2032461;29;20412;-67
2023/04/06 01:26:40;;;;;;;27.35;14.32;;;;;;;;;;2030975;29;20047;-67
2023/04/06 01:28:00;;;;;;;31.83;18.55;;;;;;;;;;2033633;28;20025;-67
2023/04/06 01:29:21;;;;;;;28.17;16.20;;;;;;;;;;2039068;29;20529;-68
2023/04/06 01:30:42;;;;;;;30.38;16.73;;;;;;;;;;2039579;29;20047;-67
2023/04/06 01:32:03;;;;;;;25.15;15.75;;;;;;;;;;2041732;29;20039;-68
2023/04/06 01:33:24;;;;;;;33.63;17.05;;;;;;;;;;2036240;29;20043;-67
2023/04/06 01:34:45;;;;;;;30.15;16.88;;;;;;;;;;2035377;29;20095;-67
2023/04/06 01:36:06;;;;;;;28.40;16.63;;;;;;;;;;2039493;29;20038;-67
2023/04/06 01:37:30;;;;;;;35.65;16.35;;;;;;;;;;2040473;29;20391;-67
2023/04/06 01:38:50;;;;;;;28.60;16.88;;;;;;;;;;2032824;29;20044;-67
2023/04/06 01:40:13;;;;;;;23.05;15.55;;;;;;;;;;2033096;29;20387;-68
2023/04/06 01:41:34;;;;;;;25.45;15.68;;;;;;;;;;2047101;29;20399;-67
2023/04/06 01:42:55;;;;;;;38.22;18.40;;;;;;;;;;2035851;29;20035;-67
2023/04/06 01:44:17;;;;;;;28.63;16.50;;;;;;;;;;2037692;29;20035;-67
2023/04/06 01:45:37;;;;;;;32.08;16.85;;;;;;;;;;2036813;29;20031;-67
2023/04/06 01:46:58;;;;;;;30.73;17.17;;;;;;;;;;2038351;29;20024;-67
2023/04/06 01:48:19;;;;;;;32.05;18.23;;;;;;;;;;2040019;28;20043;-68
2023/04/06 01:49:40;;;;;;;28.48;16.65;;;;;;;;;;2040356;29;20046;-67
2023/04/06 01:51:01;;;;;;;29.02;16.80;;;;;;;;;;2042206;29;20027;-67
2023/04/06 01:52:22;;;;;;;23.95;15.80;;;;;;;;;;2042210;29;20028;-68
2023/04/06 01:53:43;;;;;;;30.05;17.45;;;;;;;;;;2036283;29;20495;-67
2023/04/06 01:55:05;;;;;;;26.17;16.65;;;;;;;;;;2039176;29;20086;-67
2023/04/06 01:56:26;;;;;;;28.67;17.15;;;;;;;;;;2035399;29;20035;-67
2023/04/06 01:57:47;;;;;;;25.23;16.27;;;;;;;;;;2041920;29;20084;-67
2023/04/06 01:59:08;;;;;;;23.55;16.27;;;;;;;;;;2039679;29;20036;-67
2023/04/06 02:00:29;;;;;;;27.83;16.85;;;;;;;;;;2037332;29;20496;-68
2023/04/06 02:01:49;;;;;;;28.13;16.90;;;;;;;;;;2037098;29;20277;-68
2023/04/06 02:03:11;;;;;;;27.67;16.73;;;;;;;;;;2038251;29;20128;-67
2023/04/06 02:04:31;;;;;;;27.40;15.93;;;;;;;;;;2032885;29;20031;-67
2023/04/06 02:05:52;;;;;;;25.33;15.57;;;;;;;;;;2030244;29;20424;-68
2023/04/06 02:07:13;;;;;;;29.95;16.45;;;;;;;;;;2035722;29;20051;-67
2023/04/06 02:08:34;;;;;;;25.70;15.05;;;;;;;;;;2034286;28;20037;-67
2023/04/06 02:09:55;;;;;;;26.50;15.70;;;;;;;;;;2044019;29;20372;-67
2023/04/06 02:11:16;;;;;;;27.85;15.30;;;;;;;;;;2039302;29;20076;-67
2023/04/06 02:12:37;;;;;;;28.92;16.38;;;;;;;;;;2032104;29;20075;-67
2023/04/06 02:14:00;;;;;;;22.83;14.88;;;;;;;;;;2040757;29;20530;-67
2023/04/06 02:15:21;;;;;;;26.98;15.85;;;;;;;;;;2037132;29;20028;-68
2023/04/06 02:16:42;;;;;;;25.33;15.57;;;;;;;;;;2039861;29;20479;-68
2023/04/06 02:18:03;;;;;;;30.27;16.58;;;;;;;;;;2029677;29;20037;-70
2023/04/06 02:19:24;;;;;;;27.88;16.60;;;;;;;;;;2038218;29;20031;-71
2023/04/06 02:20:45;;;;;;;26.73;16.38;;;;;;;;;;2034467;29;20032;-70
2023/04/06 02:22:06;;;;;;;23.58;15.98;;;;;;;;;;2038562;29;20024;-69
2023/04/06 02:23:27;;;;;;;31.63;17.63;;;;;;;;;;2038562;29;20036;-69
2023/04/06 02:24:48;;;;;;;27.42;16.83;;;;;;;;;;2030113;29;20044;-69
2023/04/06 02:26:09;;;;;;;27.23;15.65;;;;;;;;;;2037425;29;20399;-70
2023/04/06 02:27:30;;;;;;;27.58;15.98;;;;;;;;;;2040565;29;20039;-69
2023/04/06 02:28:51;;;;;;;26.60;15.85;;;;;;;;;;2037727;29;20067;-70
2023/04/06 02:30:12;;;;;;;24.55;15.65;;;;;;;;;;2031986;29;20043;-69
2023/04/06 02:31:32;;;;;;;25.10;15.18;;;;;;;;;;2032060;29;20393;-69
2023/04/06 02:32:53;;;;;;;24.70;15.60;;;;;;;;;;2033328;29;20078;-70
2023/04/06 02:34:17;;;;;;;29.40;16.88;;;;;;;;;;2040565;29;20047;-70
2023/04/06 02:35:38;;;;;;;27.58;16.23;;;;;;;;;;2037122;29;20060;-69
2023/04/06 02:36:59;;;;;;;28.05;16.77;;;;;;;;;;2033974;29;20054;-70
2023/04/06 02:38:20;;;;;;;32.85;17.92;;;;;;;;;;2034521;29;20047;-70
2023/04/06 02:39:41;;;;;;;29.85;16.77;;;;;;;;;;2041433;29;20036;-70
2023/04/06 02:41:01;;;;;;;30.02;16.15;;;;;;;;;;2026018;29;20028;-72
2023/04/06 02:42:22;;;;;;;29.38;16.50;;;;;;;;;;2034350;29;20484;-72
2023/04/06 02:43:43;;;;;;;30.27;18.05;;;;;;;;;;2030688;29;20043;-72
2023/04/06 02:45:04;;;;;;;34.95;18.20;;;;;;;;;;2026123;29;20036;-72
2023/04/06 02:46:25;;;;;;;34.03;17.17;;;;;;;;;;2036512;29;20031;-72
2023/04/06 02:47:46;;;;;;;26.77;16.48;;;;;;;;;;2033791;29;20047;-72
2023/04/06 02:49:07;;;;;;;27.88;16.63;;;;;;;;;;2036889;29;20044;-72
2023/04/06 02:50:28;;;;;;;30.20;17.55;;;;;;;;;;2038063;29;20052;-72
2023/04/06 02:51:49;;;;;;;37.35;18.60;;;;;;;;;;2036220;29;20032;-71
2023/04/06 02:53:10;;;;;;;32.00;17.77;;;;;;;;;;2037770;29;20479;-72
2023/04/06 02:54:31;;;;;;;24.52;16.83;;;;;;;;;;2043783;29;20043;-72
2023/04/06 02:55:51;;;;;;;27.42;17.75;;;;;;;;;;2038572;29;20040;-72
2023/04/06 02:57:12;;;;;;;29.52;16.60;;;;;;;;;;2034552;29;20596;-72
2023/04/06 02:58:33;;;;;;;29.50;17.40;;;;;;;;;;2038381;29;20043;-72
2023/04/06 02:59:54;;;;;;;30.63;17.13;;;;;;;;;;2044287;29;20027;-72
2023/04/06 03:01:15;;;;;;;28.83;16.88;;;;;;;;;;2040233;29;20027;-71
2023/04/06 03:02:36;;;;;;;29.60;16.70;;;;;;;;;;2033410;29;20157;-72
2023/04/06 03:03:57;;;;;;;26.27;16.25;;;;;;;;;;2037131;29;20447;-72
2023/04/06 03:05:18;;;;;;;29.40;16.92;;;;;;;;;;2036992;29;20032;-72
2023/04/06 03:06:39;;;;;;;29.75;17.80;;;;;;;;;;2044068;29;20094;-71
2023/04/06 03:07:59;;;;;;;28.60;16.77;;;;;;;;;;2031099;29;20076;-72
2023/04/06 03:09:21;;;;;;;28.40;17.27;;;;;;;;;;2038550;29;20047;-71
2023/04/06 03:10:41;;;;;;;29.70;16.75;;;;;;;;;;2030498;29;20048;-72
2023/04/06 03:12:02;;;;;;;29.27;17.08;;;;;;;;;;2040291;29;20027;-72
2023/04/06 03:13:23;;;;;;;31.05;17.52;;;;;;;;;;2039164;29;20044;-72
2023/04/06 03:14:44;;;;;;;32.10;17.30;;;;;;;;;;2036409;29;20099;-72
2023/04/06 03:16:05;;;;;;;35.63;17.70;;;;;;;;;;2044329;29;20043;-72
2023/04/06 03:17:26;;;;;;;32.08;17.17;;;;;;;;;;2040572;29;20070;-71
2023/04/06 03:18:47;;;;;;;30.38;18.42;;;;;;;;;;2037257;29;20040;-72
2023/04/06 03:20:08;;;;;;;27.63;17.63;;;;;;;;;;2034282;28;20028;-72
2023/04/06 03:21:29;;;;;;;32.60;16.98;;;;;;;;;;2030322;29;20039;-72
2023/04/06 03:22:50;;;;;;;30.40;17.80;;;;;;;;;;2038201;29;20027;-72
2023/04/06 03:24:12;;;;;;;32.78;18.17;;;;;;;;;;2040135;29;20111;-72
2023/04/06 03:25:33;;;;;;;;;;;;;;;;;;2040909;29;20031;-72
2023/04/06 03:26:54;;;;;;;29.65;18.23;;;;;;;;;;2042781;29;19914;-72
2023/04/06 03:28:15;;;;;;;29.98;17.55;;;;;;;;;;2046246;29;20035;-72
2023/04/06 03:29:36;;;;;;;29.73;15.98;;;;;;;;;;2043417;29;20051;-72
2023/04/06 03:30:57;;;;;;;26.02;16.20;;;;;;;;;;2042966;29;20048;-72
2023/04/06 03:32:18;;;;;;;30.38;17.98;;;;;;;;;;2039743;29;20432;-72
2023/04/06 03:33:39;;;;;;;31.95;17.50;;;;;;;;;;2029926;29;20095;-72
2023/04/06 03:35:00;;;;;;;29.85;18.10;;;;;;;;;;2042901;29;20034;-72
2023/04/06 03:36:21;;;;;;;26.20;17.42;;;;;;;;;;2041134;29;20087;-71
2023/04/06 03:37:42;;;;;;;35.08;19.00;;;;;;;;;;2032039;29;20086;-72
2023/04/06 03:39:03;;;;;;;28.80;17.80;;;;;;;;;;2034713;29;20046;-72
2023/04/06 03:40:24;;;;;;;34.72;18.58;;;;;;;;;;2037848;29;20039;-72
2023/04/06 03:41:45;;;;;;;30.05;18.92;;;;;;;;;;2033298;29;20084;-72
2023/04/06 03:43:05;;;;;;;32.25;18.48;;;;;;;;;;2027104;29;20044;-72
2023/04/06 03:44:26;;;;;;;28.20;17.70;;;;;;;;;;2038741;29;20111;-72
2023/04/06 03:45:47;;;;;;;29.80;18.85;;;;;;;;;;2034084;29;20028;-72
2023/04/06 03:47:08;;;;;;;34.90;19.27;;;;;;;;;;2034470;29;20032;-72
2023/04/06 03:48:29;;;;;;;32.13;18.10;;;;;;;;;;2035208;29;20380;-71
2023/04/06 03:49:50;;;;;;;31.65;17.52;;;;;;;;;;2035506;29;20032;-72
2023/04/06 03:51:11;;;;;;;28.92;18.27;;;;;;;;;;2032953;29;20032;-72
2023/04/06 03:52:32;;;;;;;35.67;19.17;;;;;;;;;;2034241;29;20039;-72
2023/04/06 03:53:53;;;;;;;33.67;18.75;;;;;;;;;;2037903;29;20031;-71
2023/04/06 03:55:14;;;;;;;34.70;18.23;;;;;;;;;;2041559;29;20036;-72
2023/04/06 03:56:35;;;;;;;32.30;19.25;;;;;;;;;;2036808;29;20503;-72
2023/04/06 03:57:55;;;;;;;32.72;18.88;;;;;;;;;;2041086;29;20047;-72
2023/04/06 03:59:16;;;;;;;29.30;17.83;;;;;;;;;;2040979;29;20042;-72
2023/04/06 04:00:37;;;;;;;33.33;18.00;;;;;;;;;;2043125;29;20035;-72
2023/04/06 04:01:58;;;;;;;36.33;19.85;;;;;;;;;;2031615;29;20043;-72
2023/04/06 04:03:19;;;;;;;36.70;19.40;;;;;;;;;;2031168;29;20051;-72
2023/04/06 04:04:40;;;;;;;31.90;18.67;;;;;;;;;;2042306;29;20494;-72
2023/04/06 04:06:01;;;;;;;33.20;19.13;;;;;;;;;;2033540;29;20103;-72
2023/04/06 04:07:22;;;;;;;33.85;18.98;;;;;;;;;;2038975;29;20087;-72
2023/04/06 04:08:42;;;;;;;33.00;20.42;;;;;;;;;;2039271;28;20573;-71
2023/04/06 04:10:04;;;;;;;32.00;18.80;;;;;;;;;;2043683;29;20055;-72
2023/04/06 04:11:24;;;;;;;32.20;18.75;;;;;;;;;;2046806;29;20042;-72
2023/04/06 04:12:45;;;;;;;35.75;18.75;;;;;;;;;;2044683;29;20053;-72
2023/04/06 04:14:06;;;;;;;36.95;18.77;;;;;;;;;;2036562;29;20059;-72
2023/04/06 04:15:27;;;;;;;35.60;17.38;;;;;;;;;;2036709;29;20036;-72
2023/04/06 04:16:48;;;;;;;35.17;20.15;;;;;;;;;;2032058;29;20044;-72
2023/04/06 04:18:09;;;;;;;29.35;18.55;;;;;;;;;;2034159;29;20430;-72
2023/04/06 04:19:30;;;;;;;35.35;20.27;;;;;;;;;;2039065;29;20043;-72
2023/04/06 04:20:51;;;;;;;35.35;20.38;;;;;;;;;;2039807;29;20028;-72
2023/04/06 04:22:11;;;;;;;32.78;18.67;;;;;;;;;;2040342;29;20420;-71
2023/04/06 04:23:32;;;;;;;31.30;18.25;;;;;;;;;;2039078;29;20050;-71
2023/04/06 04:24:53;;;;;;;32.35;18.38;;;;;;;;;;2038760;29;20028;-72
2023/04/06 04:26:14;;;;;;;32.67;19.50;;;;;;;;;;2038754;29;20491;-72
2023/04/06 04:27:35;;;;;;;39.15;20.65;;;;;;;;;;2039817;29;20067;-72
2023/04/06 04:28:56;;;;;;;30.35;18.40;;;;;;;;;;2038068;29;20070;-72
2023/04/06 04:30:17;;;;;;;32.88;18.75;;;;;;;;;;2039835;29;20032;-72
2023/04/06 04:31:38;;;;;;;36.22;19.23;;;;;;;;;;2040015;29;20098;-72
2023/04/06 04:32:59;;;;;;;32.70;20.63;;;;;;;;;;2035318;29;20033;-71
2023/04/06 04:34:20;;;;;;;36.10;20.48;;;;;;;;;;2039720;29;20027;-72
2023/04/06 04:35:41;;;;;;;34.13;21.38;;;;;;;;;;2044188;29;20035;-72
2023/04/06 04:37:02;;;;;;;38.08;21.10;;;;;;;;;;2039483;29;20035;-71
2023/04/06 04:38:23;;;;;;;41.50;21.35;;;;;;;;;;2037415;29;20036;-72
2023/04/06 04:39:45;;;;;;;32.30;20.60;;;;;;;;;;2029144;29;20087;-72
2023/04/06 04:41:05;;;;;;;36.90;21.00;;;;;;;;;;2030843;29;20028;-73
2023/04/06 04:42:26;;;;;;;34.78;17.95;;;;;;;;;;2031496;29;20074;-72
2023/04/06 04:43:47;;;;;;;37.55;22.13;;;;;;;;;;2037638;29;20044;-72
2023/04/06 04:45:08;;;;;;;36.10;20.08;;;;;;;;;;2034541;29;20027;-71
2023/04/06 04:46:29;;;;;;;39.45;20.67;;;;;;;;;;2037856;29;20031;-73
2023/04/06 04:47:50;;;;;;;33.70;19.42;;;;;;;;;;2031727;29;20040;-72
2023/04/06 04:49:11;;;;;;;36.35;21.48;;;;;;;;;;2035693;29;20039;-72
2023/04/06 04:50:32;;;;;;;37.88;21.52;;;;;;;;;;2037152;29;20396;-72
2023/04/06 04:51:53;;;;;;;40.47;20.73;;;;;;;;;;2040531;29;20489;-73
2023/04/06 04:53:14;;;;;;;42.83;21.48;;;;;;;;;;2034968;29;20075;-72
2023/04/06 04:54:35;;;;;;;36.05;20.90;;;;;;;;;;2037877;29;20039;-72
2023/04/06 04:55:59;;;;;;;34.45;20.45;;;;;;;;;;2036373;29;20052;-73
2023/04/06 04:57:20;;;;;;;44.20;21.60;;;;;;;;;;2039406;29;20079;-72
2023/04/06 04:58:40;;;;;;;39.72;20.38;;;;;;;;;;2037831;29;20413;-72
2023/04/06 05:00:02;;;;;;;46.83;21.35;;;;;;;;;;2029089;29;20042;-72
2023/04/06 05:01:23;;;;;;;36.47;20.02;;;;;;;;;;2030549;29;20106;-72
2023/04/06 05:02:43;;;;;;;34.13;20.30;;;;;;;;;;2031456;29;20064;-72
2023/04/06 05:04:04;;;;;;;41.95;20.02;;;;;;;;;;2037443;29;20028;-72
2023/04/06 05:05:25;;;;;;;34.53;19.88;;;;;;;;;;2040336;29;20036;-72
2023/04/06 05:06:46;;;;;;;31.38;20.23;;;;;;;;;;2036346;29;20547;-72
2023/04/06 05:08:07;;;;;;;33.25;20.00;;;;;;;;;;2037870;29;20098;-72
2023/04/06 05:09:29;;;;;;;41.50;20.05;;;;;;;;;;2030667;29;20036;-72
2023/04/06 05:10:51;;;;;;;36.15;19.50;;;;;;;;;;2037400;29;20028;-72
2023/04/06 05:12:12;;;;;;;37.65;20.60;;;;;;;;;;2040338;29;20036;-72
2023/04/06 05:13:32;;;;;;;35.88;20.20;;;;;;;;;;2033853;29;20220;-72
2023/04/06 05:14:54;;;;;;;36.40;20.38;;;;;;;;;;2044309;29;20036;-72
2023/04/06 05:16:14;;;;;;;40.03;23.25;;;;;;;;;;2032424;29;20036;-72
2023/04/06 05:17:35;;;;;;;33.70;19.92;;;;;;;;;;2031382;29;20088;-72
2023/04/06 05:18:56;;;;;;;36.58;20.67;;;;;;;;;;2037118;29;20031;-72
2023/04/06 05:20:17;;;;;;;32.13;20.45;;;;;;;;;;2037951;29;20419;-73
2023/04/06 05:21:38;;;;;;;47.92;22.73;;;;;;;;;;2032360;29;20085;-72
2023/04/06 05:22:59;;;;;;;42.58;21.35;;;;;;;;;;2034287;29;20031;-72
2023/04/06 05:24:20;;;;;;;42.70;21.98;;;;;;;;;;2043437;29;20375;-72
2023/04/06 05:25:41;;;;;;;34.00;20.52;;;;;;;;;;2034280;29;20043;-73
2023/04/06 05:27:02;;;;;;;38.90;20.17;;;;;;;;;;2038865;29;20037;-72
2023/04/06 05:28:22;;;;;;;37.60;20.92;;;;;;;;;;2038159;29;20039;-72
2023/04/06 05:29:43;;;;;;;40.58;20.50;;;;;;;;;;2038601;29;20407;-72
2023/04/06 05:31:04;;;;;;;35.13;20.05;;;;;;;;;;2029813;29;20111;-72
2023/04/06 05:32:26;;;;;;;48.25;23.25;;;;;;;;;;2037017;29;20039;-72
2023/04/06 05:33:47;;;;;;;36.38;20.20;;;;;;;;;;2036778;29;20039;-73
2023/04/06 05:35:08;;;;;;;40.83;22.10;;;;;;;;;;2035064;29;20042;-71
2023/04/06 05:36:30;;;;;;;32.25;20.33;;;;;;;;;;2038172;29;20046;-72
2023/04/06 05:37:51;;;;;;;35.72;20.63;;;;;;;;;;2032195;29;20044;-73
2023/04/06 05:39:12;;;;;;;37.47;20.10;;;;;;;;;;2029909;29;20036;-72
2023/04/06 05:40:33;;;;;;;39.33;21.85;;;;;;;;;;2025177;29;20032;-71
2023/04/06 05:41:54;;;;;;;37.58;21.67;;;;;;;;;;2029086;29;20079;-72
2023/04/06 05:43:15;;;;;;;43.50;21.15;;;;;;;;;;2025467;29;20029;-71
2023/04/06 05:44:37;;;;;;;39.85;22.08;;;;;;;;;;2037592;29;20522;-72
2023/04/06 05:45:57;;;;;;;35.87;21.50;;;;;;;;;;2037424;29;20036;-73
2023/04/06 05:47:18;;;;;;;41.67;21.83;;;;;;;;;;2027232;29;20033;-72
2023/04/06 05:48:39;;;;;;;40.20;22.15;;;;;;;;;;2033565;29;20496;-73
2023/04/06 05:50:00;;;;;;;36.10;21.55;;;;;;;;;;2043769;29;20526;-72
2023/04/06 05:51:21;;;;;;;43.38;21.80;;;;;;;;;;2038913;29;20036;-73
2023/04/06 05:52:43;;;;;;;37.60;20.90;;;;;;;;;;2039917;29;20078;-72
2023/04/06 05:54:03;;;;;;;43.03;21.65;;;;;;;;;;2037094;29;20044;-73
2023/04/06 05:55:24;;;;;;;36.97;20.08;;;;;;;;;;2029622;29;20044;-73
2023/04/06 05:56:45;;;;;;;38.40;21.33;;;;;;;;;;2031328;29;20044;-73
2023/04/06 05:58:06;;;;;;;36.92;21.58;;;;;;;;;;2031827;29;20036;-72
2023/04/06 05:59:27;;;;;;;38.35;21.15;;;;;;;;;;2040804;28;20087;-72
2023/04/06 06:00:48;;;;;;;38.58;21.67;;;;;;;;;;2034245;29;20143;-72
2023/04/06 06:02:09;;;;;;;37.88;20.98;;;;;;;;;;2033528;29;20044;-72
2023/04/06 06:03:30;;;;;;;37.35;21.50;;;;;;;;;;2035965;29;20035;-72
2023/04/06 06:04:51;;;;;;;39.03;22.08;;;;;;;;;;2031184;29;20057;-72
2023/04/06 06:06:11;;;;;;;37.97;21.90;;;;;;;;;;2033083;29;20033;-73
2023/04/06 06:07:32;;;;;;;40.97;20.00;;;;;;;;;;2039781;29;20024;-72
2023/04/06 06:08:53;;;;;;;37.47;21.38;;;;;;;;;;2031558;29;20032;-72
2023/04/06 06:10:14;;;;;;;36.47;21.52;;;;;;;;;;2037341;29;20039;-72
2023/04/06 06:11:35;;;;;;;33.75;20.45;;;;;;;;;;2037895;29;20087;-71
2023/04/06 06:12:56;;;;;;;37.42;21.63;;;;;;;;;;2033574;29;20103;-72
2023/04/06 06:14:17;;;;;;;37.78;21.05;;;;;;;;;;2037974;29;20039;-73
2023/04/06 06:15:38;;;;;;;34.58;21.48;;;;;;;;;;2040066;29;20515;-73
2023/04/06 06:16:59;;;;;;;38.38;22.80;;;;;;;;;;2033413;29;20036;-73
2023/04/06 06:18:20;;;;;;;39.55;22.67;;;;;;;;;;2037396;29;20031;-72
2023/04/06 06:19:40;;;;;;;41.90;23.52;;;;;;;;;;2041933;29;20050;-73
2023/04/06 06:21:01;;;;;;;36.05;20.67;;;;;;;;;;2040362;29;20052;-73
2023/04/06 06:22:22;;;;;;;42.22;23.00;;;;;;;;;;2034913;29;20027;-72
2023/04/06 06:23:43;;;;;;;38.05;21.27;;;;;;;;;;2035171;29;20032;-72
2023/04/06 06:25:04;;;;;;;35.55;21.67;;;;;;;;;;2036964;29;20352;-73
2023/04/06 06:26:26;;;;;;;46.28;21.92;;;;;;;;;;2030558;29;20043;-73
2023/04/06 06:27:46;;;;;;;34.95;21.38;;;;;;;;;;2034153;29;20028;-73
2023/04/06 06:29:07;;;;;;;38.75;21.73;;;;;;;;;;2035043;29;20412;-73
2023/04/06 06:30:28;;;;;;;40.72;22.88;;;;;;;;;;2032097;29;20040;-73
2023/04/06 06:31:49;;;;;;;44.33;21.73;;;;;;;;;;2039117;29;20036;-71
2023/04/06 06:33:10;;;;;;;42.00;22.13;;;;;;;;;;2041817;29;20031;-71
2023/04/06 06:34:31;;;;;;;39.97;21.10;;;;;;;;;;2042533;29;20408;-70
2023/04/06 06:35:52;;;;;;;36.05;21.98;;;;;;;;;;2037715;29;20047;-71
2023/04/06 06:37:13;;;;;;;38.95;20.05;;;;;;;;;;2032400;29;20088;-71
2023/04/06 06:38:34;;;;;;;46.05;22.17;;;;;;;;;;2035882;29;20433;-71
2023/04/06 06:39:55;;;;;;;37.25;21.15;;;;;;;;;;2043772;29;20051;-71
2023/04/06 06:41:16;;;;;;;34.83;20.27;;;;;;;;;;2040245;29;20064;-71
2023/04/06 06:42:37;;;;;;;35.92;21.67;;;;;;;;;;2038179;29;20500;-71
2023/04/06 06:43:57;;;;;;;35.30;21.10;;;;;;;;;;2038980;29;20059;-71
2023/04/06 06:45:19;;;;;;;36.53;21.92;;;;;;;;;;2031030;29;20028;-71
2023/04/06 06:46:40;;;;;;;40.75;22.45;;;;;;;;;;2035570;29;20035;-71
2023/04/06 06:48:01;;;;;;;35.13;20.58;;;;;;;;;;2037737;29;20032;-71
2023/04/06 06:49:22;;;;;;;40.20;21.25;;;;;;;;;;2039005;29;20036;-71
2023/04/06 06:50:43;;;;;;;38.85;21.23;;;;;;;;;;2041184;29;20379;-71
2023/04/06 06:52:04;;;;;;;36.83;20.05;;;;;;;;;;2033662;29;20036;-71
2023/04/06 06:53:25;;;;;;;39.90;21.77;;;;;;;;;;2038174;29;20032;-72
2023/04/06 06:54:46;;;;;;;38.55;22.40;;;;;;;;;;2041662;29;20028;-71
2023/04/06 06:56:06;;;;;;;46.03;22.33;;;;;;;;;;2041297;29;20043;-70
2023/04/06 06:57:27;;;;;;;35.28;20.23;;;;;;;;;;2041786;29;20115;-71
2023/04/06 06:58:48;;;;;;;42.22;20.70;;;;;;;;;;2040869;29;20047;-71
2023/04/06 07:00:10;;;;;;;37.40;20.83;;;;;;;;;;2040019;29;20492;-71
2023/04/06 07:01:32;;;;;;;36.05;21.45;;;;;;;;;;2039554;29;20046;-71
2023/04/06 07:02:53;;;;;;;41.15;20.77;;;;;;;;;;2040665;29;20051;-71
2023/04/06 07:04:14;;;;;;;34.25;20.70;;;;;;;;;;2040723;29;20020;-71
2023/04/06 07:05:35;;;;;;;34.28;21.27;;;;;;;;;;2040907;29;20084;-70
2023/04/06 07:06:56;;;;;;;37.95;21.48;;;;;;;;;;2041181;29;20031;-71
2023/04/06 07:08:16;;;;;;;59.05;26.08;;;;;;;;;;2040081;29;20348;-71
2023/04/06 07:09:37;;;;;;;36.20;20.10;;;;;;;;;;2038078;29;20035;-71
2023/04/06 07:10:58;;;;;;;36.00;20.50;;;;;;;;;;2040449;29;20032;-71
2023/04/06 07:12:19;;;;;;;38.28;20.45;;;;;;;;;;2040843;29;20336;-71
2023/04/06 07:13:40;;;;;;;35.42;20.27;;;;;;;;;;2040280;29;20458;-73
2023/04/06 07:15:01;;;;;;;29.23;18.92;;;;;;;;;;2032513;29;20036;-74
2023/04/06 07:16:22;;;;;;;35.50;19.88;;;;;;;;;;2035874;29;20076;-72
2023/04/06 07:17:44;;;;;;;39.83;21.42;;;;;;;;;;2040234;29;20031;-73
2023/04/06 07:19:05;;;;;;;34.92;20.42;;;;;;;;;;2031495;29;20040;-72
2023/04/06 07:20:27;;;;;;;33.38;20.48;;;;;;;;;;2037225;29;20031;-70
2023/04/06 07:21:52;;;;;;;40.20;20.52;;;;;;;;;;2036251;29;20338;-72
2023/04/06 07:23:12;;;;;;;37.60;19.55;;;;;;;;;;2036597;29;20086;-73
2023/04/06 07:24:33;;;;;;;33.78;20.77;;;;;;;;;;2042569;29;20027;-73
2023/04/06 07:25:54;;;;;;;35.22;20.08;;;;;;;;;;2032386;29;20480;-71
2023/04/06 07:27:16;;;;;;;34.60;18.63;;;;;;;;;;2038647;29;20055;-71
2023/04/06 07:28:37;;;;;;;35.08;21.13;;;;;;;;;;2040611;29;20396;-73
2023/04/06 07:29:57;;;;;;;33.20;19.05;;;;;;;;;;2039876;28;20040;-73
2023/04/06 07:31:18;;;;;;;31.98;18.35;;;;;;;;;;2040490;29;20116;-73
2023/04/06 07:32:39;;;;;;;38.13;21.23;;;;;;;;;;2033978;29;20400;-71
2023/04/06 07:34:00;;;;;;;33.67;20.00;;;;;;;;;;2039758;29;20411;-71
2023/04/06 07:35:22;;;;;;;34.55;19.02;;;;;;;;;;2040123;29;20059;-71
2023/04/06 07:36:43;;;;;;;32.60;18.85;;;;;;;;;;2040200;29;20555;-71
2023/04/06 07:38:04;;;;;;;32.05;19.38;;;;;;;;;;2038036;29;20024;-71
2023/04/06 07:39:26;;;;;;;35.90;19.33;;;;;;;;;;2038598;29;20484;-70
2023/04/06 07:40:47;;;;;;;38.20;19.42;;;;;;;;;;2037159;29;20036;-70
2023/04/06 07:42:08;;;;;;;31.45;19.90;;;;;;;;;;2041262;29;20444;-73
2023/04/06 07:43:30;;;;;;;37.03;21.27;;;;;;;;;;2039215;29;20023;-71
2023/04/06 07:44:51;;;;;;;32.08;19.65;;;;;;;;;;2040087;29;20028;-71
2023/04/06 07:46:11;;;;;;;35.78;19.45;;;;;;;;;;2033103;29;20028;-71
2023/04/06 07:47:32;;;;;;;38.78;19.33;;;;;;;;;;2032848;29;20028;-73
2023/04/06 07:48:53;;;;;;;38.17;20.30;;;;;;;;;;2035950;29;20036;-71
2023/04/06 07:50:14;;;;;;;33.17;18.90;;;;;;;;;;2025984;29;20048;-71
2023/04/06 07:51:36;;;;;;;35.08;19.20;;;;;;;;;;2036641;29;20369;-72